Time;durP1;ratioP1;P1;durP2;ratioP2;P2;SDS_P1;SDS_P2;PMS_P1;PMS_P2;Temp;Humidity;BMP_temperature;BMP_pressure;BME280_temperature;BME280_humidity;BME280_pressure;Samples;Min_cycle;Max_cycle;Signal;HPM_P1;HPM_P2
2023/12/02 00:02:15;;;;;;;24.33;11.38;;;-0.80;99.90;;;;;;5022135;28;20039;-73
2023/12/02 00:04:41;;;;;;;25.77;11.73;;;-0.90;99.90;;;;;;5022934;28;20471;-73
2023/12/02 00:07:07;;;;;;;25.05;11.20;;;-0.90;99.90;;;;;;5024380;28;20036;-74
2023/12/02 00:09:34;;;;;;;24.63;11.65;;;-0.90;99.90;;;;;;5018807;28;20049;-74
2023/12/02 00:12:00;;;;;;;22.58;11.13;;;-0.90;99.90;;;;;;5024036;28;20108;-73
2023/12/02 00:14:25;;;;;;;23.50;11.18;;;-1.00;99.90;;;;;;5018754;28;20216;-73
2023/12/02 00:16:51;;;;;;;25.27;11.55;;;-1.00;99.90;;;;;;5022910;28;20101;-73
2023/12/02 00:19:17;;;;;;;24.40;11.15;;;-0.90;99.90;;;;;;5030135;28;20529;-74
2023/12/02 00:21:42;;;;;;;24.55;11.15;;;-1.00;99.90;;;;;;5030990;28;20040;-74
2023/12/02 00:24:08;;;;;;;24.95;12.15;;;-0.90;99.90;;;;;;5029352;28;20052;-74
2023/12/02 00:26:34;;;;;;;22.80;11.40;;;-0.90;99.90;;;;;;5024138;28;20129;-74
2023/12/02 00:29:00;;;;;;;26.27;12.00;;;-0.90;99.90;;;;;;5026085;28;20048;-74
2023/12/02 00:31:26;;;;;;;29.27;12.50;;;-0.90;99.90;;;;;;5026030;28;20034;-75
2023/12/02 00:33:52;;;;;;;22.73;11.57;;;-0.90;99.90;;;;;;5019364;28;20025;-74
2023/12/02 00:36:17;;;;;;;28.00;11.82;;;-0.90;99.90;;;;;;5017130;28;20057;-74
2023/12/02 00:38:43;;;;;;;23.00;11.60;;;-0.90;99.90;;;;;;5029349;28;20091;-74
2023/12/02 00:41:11;;;;;;;23.73;11.40;;;-0.90;99.90;;;;;;5029054;28;20022;-74
2023/12/02 00:43:37;;;;;;;25.80;12.10;;;-0.90;99.90;;;;;;5028153;28;20041;-75
2023/12/02 00:46:03;;;;;;;25.98;11.50;;;-0.90;99.90;;;;;;5025389;28;20399;-73
2023/12/02 00:48:28;;;;;;;27.15;12.43;;;-0.90;99.90;;;;;;5021809;28;20123;-74
2023/12/02 00:50:54;;;;;;;24.58;11.65;;;-0.90;99.90;;;;;;5020390;28;20528;-74
2023/12/02 00:53:20;;;;;;;25.38;11.10;;;-1.00;99.90;;;;;;5017934;28;20637;-74
2023/12/02 00:55:45;;;;;;;25.90;12.23;;;-1.00;99.90;;;;;;5016002;28;20052;-74
2023/12/02 00:58:11;;;;;;;24.83;11.52;;;-1.00;99.90;;;;;;5023765;28;20022;-75
2023/12/02 01:00:37;;;;;;;32.95;15.85;;;-1.00;99.90;;;;;;5029151;28;20033;-74
2023/12/02 01:03:03;;;;;;;31.33;14.95;;;-1.10;99.90;;;;;;5035921;28;20109;-74
2023/12/02 01:05:29;;;;;;;25.63;12.10;;;-1.00;99.90;;;;;;5031548;28;20747;-73
2023/12/02 01:07:54;;;;;;;38.53;19.23;;;-1.00;99.90;;;;;;5034841;28;20106;-74
2023/12/02 01:10:20;;;;;;;34.65;17.52;;;-1.10;99.90;;;;;;5019981;28;20053;-74
2023/12/02 01:12:46;;;;;;;37.22;17.13;;;-1.20;99.90;;;;;;5022216;28;20096;-75
2023/12/02 01:15:11;;;;;;;34.75;16.67;;;-1.20;99.90;;;;;;5022093;28;20034;-74
2023/12/02 01:17:37;;;;;;;23.90;12.48;;;-1.30;99.90;;;;;;5030417;28;20041;-75
2023/12/02 01:20:03;;;;;;;25.15;11.60;;;-1.30;99.90;;;;;;5027813;28;20048;-74
2023/12/02 01:22:29;;;;;;;26.67;13.07;;;-1.30;99.90;;;;;;5027800;28;20515;-74
2023/12/02 01:24:54;;;;;;;26.77;12.45;;;-1.30;99.90;;;;;;5025983;28;20029;-74
2023/12/02 01:27:20;;;;;;;27.02;12.65;;;-1.30;99.90;;;;;;5028112;28;20025;-75
2023/12/02 01:29:46;;;;;;;29.90;14.20;;;-1.30;99.90;;;;;;5024615;28;20038;-74
2023/12/02 01:32:12;;;;;;;26.58;12.45;;;-1.20;99.90;;;;;;5021797;28;20026;-73
2023/12/02 01:34:37;;;;;;;24.38;11.27;;;-1.30;99.90;;;;;;5022482;28;20045;-75
2023/12/02 01:37:03;;;;;;;27.10;11.32;;;-1.30;99.90;;;;;;5030378;28;20044;-75
2023/12/02 01:39:29;;;;;;;22.30;10.95;;;-1.30;99.90;;;;;;5027577;28;20053;-74
2023/12/02 01:41:55;;;;;;;24.27;11.38;;;-1.30;99.90;;;;;;5028537;28;20056;-74
2023/12/02 01:44:20;;;;;;;24.33;11.75;;;-1.30;99.90;;;;;;5026134;28;20034;-74
2023/12/02 01:46:46;;;;;;;21.67;11.40;;;-1.30;99.90;;;;;;5026128;28;20033;-74
2023/12/02 01:49:12;;;;;;;22.63;10.10;;;-1.40;99.90;;;;;;5022803;28;20033;-74
2023/12/02 01:51:38;;;;;;;22.27;10.48;;;-1.40;99.90;;;;;;5022878;28;20479;-73
2023/12/02 01:54:04;;;;;;;27.33;12.02;;;-1.30;99.90;;;;;;5023200;28;20526;-75
2023/12/02 01:56:30;;;;;;;27.05;11.23;;;-1.30;99.90;;;;;;5030024;28;20037;-73
2023/12/02 01:58:57;;;;;;;23.55;10.05;;;-1.30;99.90;;;;;;5025715;28;20041;-74
2023/12/02 02:01:22;;;;;;;21.40;10.27;;;-1.30;99.90;;;;;;5024005;28;20561;-73
2023/12/02 02:03:49;;;;;;;23.48;10.77;;;-1.20;99.90;;;;;;5021845;28;20037;-74
2023/12/02 02:06:15;;;;;;;22.60;10.38;;;-1.20;99.90;;;;;;5024618;28;20045;-75
2023/12/02 02:08:41;;;;;;;25.20;11.57;;;-1.20;99.90;;;;;;5020151;28;20048;-74
2023/12/02 02:11:07;;;;;;;20.33;10.18;;;-1.20;99.90;;;;;;5022185;28;20102;-74
2023/12/02 02:13:33;;;;;;;22.75;10.73;;;-1.30;99.90;;;;;;5024457;28;20049;-75
2023/12/02 02:15:59;;;;;;;23.23;11.70;;;-1.30;99.90;;;;;;5027622;28;20364;-74
2023/12/02 02:18:25;;;;;;;22.23;11.38;;;-1.30;99.90;;;;;;5028068;28;20028;-74
2023/12/02 02:20:52;;;;;;;27.00;12.43;;;-1.30;99.90;;;;;;5026398;28;20442;-75
2023/12/02 02:23:22;;;;;;;25.65;11.45;;;-1.30;99.90;;;;;;5025373;28;20525;-74
2023/12/02 02:25:52;;;;;;;24.35;11.75;;;-1.30;99.90;;;;;;5021340;28;20045;-75
2023/12/02 02:28:22;;;;;;;24.08;11.02;;;-1.40;99.90;;;;;;5021693;28;20048;-73
2023/12/02 02:30:49;;;;;;;24.83;11.68;;;-1.40;99.90;;;;;;5022318;28;20044;-75
2023/12/02 02:33:15;;;;;;;25.05;11.48;;;-1.40;99.90;;;;;;5022506;28;20029;-74
2023/12/02 02:35:42;;;;;;;23.15;11.27;;;-1.40;99.90;;;;;;5028695;28;20041;-74
2023/12/02 02:38:09;;;;;;;24.02;11.20;;;-1.40;99.90;;;;;;5027824;28;20098;-74
2023/12/02 02:40:34;;;;;;;23.48;10.93;;;-1.40;99.90;;;;;;5024098;28;20052;-74
2023/12/02 02:43:00;;;;;;;24.77;11.30;;;-1.40;99.90;;;;;;5026491;28;20492;-75
2023/12/02 02:45:26;;;;;;;22.05;11.05;;;-1.40;99.90;;;;;;5023388;28;20037;-74
2023/12/02 02:47:52;;;;;;;23.58;12.00;;;-1.40;99.90;;;;;;5026814;28;20037;-74
2023/12/02 02:50:18;;;;;;;20.45;10.85;;;-1.40;99.90;;;;;;5022577;28;20472;-74
2023/12/02 02:52:44;;;;;;;23.52;10.82;;;-1.40;99.90;;;;;;5028511;28;20045;-74
2023/12/02 02:55:10;;;;;;;22.95;11.90;;;-1.40;99.90;;;;;;5027844;28;20029;-74
2023/12/02 02:57:36;;;;;;;23.23;11.07;;;-1.40;99.90;;;;;;5026990;28;20033;-74
2023/12/02 03:00:04;;;;;;;23.85;11.18;;;-1.50;99.90;;;;;;5026993;28;20074;-74
2023/12/02 03:02:30;;;;;;;23.15;11.43;;;-1.50;99.90;;;;;;5045400;28;20050;-74
2023/12/02 03:04:56;;;;;;;23.85;11.30;;;-1.50;99.90;;;;;;5025043;28;20038;-74
2023/12/02 03:07:22;;;;;;;22.83;11.02;;;-1.40;99.90;;;;;;5026594;28;20100;-74
2023/12/02 03:09:47;;;;;;;22.38;10.70;;;-1.50;99.90;;;;;;5024991;28;20032;-74
2023/12/02 03:12:13;;;;;;;23.73;11.27;;;-1.40;99.90;;;;;;5024698;28;20026;-74
2023/12/02 03:14:39;;;;;;;22.73;11.10;;;-1.50;99.90;;;;;;5027783;28;20036;-74
2023/12/02 03:17:05;;;;;;;22.27;11.25;;;-1.50;99.90;;;;;;5027661;28;20033;-74
2023/12/02 03:19:30;;;;;;;22.58;10.50;;;-1.50;99.90;;;;;;5022422;28;20073;-74
2023/12/02 03:21:56;;;;;;;23.13;10.73;;;-1.50;99.90;;;;;;5027219;28;20040;-74
2023/12/02 03:24:22;;;;;;;24.25;11.95;;;-1.50;99.90;;;;;;5022246;28;20044;-74
2023/12/02 03:26:47;;;;;;;21.23;10.52;;;-1.50;99.90;;;;;;5023060;28;20112;-74
2023/12/02 03:29:13;;;;;;;23.42;11.43;;;-1.50;99.90;;;;;;5021622;28;20025;-74
2023/12/02 03:31:39;;;;;;;28.75;11.55;;;-1.50;99.90;;;;;;5027748;28;20463;-74
2023/12/02 03:34:04;;;;;;;21.85;10.52;;;-1.50;99.90;;;;;;5029786;28;20033;-74
2023/12/02 03:36:30;;;;;;;23.55;11.05;;;-1.60;99.90;;;;;;5027921;28;20040;-74
2023/12/02 03:38:56;;;;;;;21.75;11.23;;;-1.60;99.90;;;;;;5027085;28;20183;-74
2023/12/02 03:41:22;;;;;;;23.88;11.48;;;-1.60;99.90;;;;;;5023961;28;20065;-75
2023/12/02 03:43:48;;;;;;;23.70;10.77;;;-1.60;99.90;;;;;;5023636;28;20078;-74
2023/12/02 03:46:14;;;;;;;22.67;10.88;;;-1.60;99.90;;;;;;5024179;28;20030;-74
2023/12/02 03:48:40;;;;;;;22.58;10.52;;;-1.50;99.90;;;;;;5022466;28;20117;-74
2023/12/02 03:51:06;;;;;;;25.60;10.75;;;-1.50;99.90;;;;;;5023476;28;20037;-74
2023/12/02 03:53:34;;;;;;;23.17;10.82;;;-1.60;99.90;;;;;;5027944;28;20438;-74
2023/12/02 03:56:01;;;;;;;20.98;9.95;;;-1.60;99.90;;;;;;5027143;28;20037;-74
2023/12/02 03:58:27;;;;;;;21.85;10.20;;;-1.60;99.90;;;;;;5026359;28;20051;-74
2023/12/02 04:00:55;;;;;;;19.50;9.57;;;-1.60;99.90;;;;;;5023715;28;20383;-74
2023/12/02 04:03:21;;;;;;;23.52;11.43;;;-1.60;99.90;;;;;;5024171;28;20037;-75
2023/12/02 04:05:47;;;;;;;23.55;10.13;;;-1.60;99.90;;;;;;5022866;28;20590;-74
2023/12/02 04:08:13;;;;;;;21.20;10.93;;;-1.60;99.90;;;;;;5017011;28;20057;-74
2023/12/02 04:10:39;;;;;;;20.85;10.45;;;-1.60;99.90;;;;;;5021852;28;20044;-74
2023/12/02 04:13:08;;;;;;;21.50;10.82;;;-1.60;99.90;;;;;;5027732;28;20026;-74
2023/12/02 04:15:35;;;;;;;19.27;9.85;;;-1.60;99.90;;;;;;5027438;28;20124;-74
2023/12/02 04:18:00;;;;;;;22.08;10.02;;;-1.60;99.90;;;;;;5025729;28;20030;-74
2023/12/02 04:20:26;;;;;;;23.88;10.80;;;-1.60;99.90;;;;;;5024299;28;20690;-74
2023/12/02 04:22:53;;;;;;;22.45;10.40;;;-1.60;99.90;;;;;;5023812;28;20100;-74
2023/12/02 04:25:19;;;;;;;21.95;11.02;;;-1.60;99.90;;;;;;5020112;28;20042;-74
2023/12/02 04:27:46;;;;;;;20.83;10.25;;;-1.60;99.90;;;;;;5021309;28;20045;-75
2023/12/02 04:30:12;;;;;;;22.20;11.65;;;-1.60;99.90;;;;;;5022806;28;20033;-75
2023/12/02 04:32:38;;;;;;;21.23;9.98;;;-1.60;99.90;;;;;;5027475;28;20466;-75
2023/12/02 04:35:05;;;;;;;23.90;11.15;;;-1.60;99.90;;;;;;5027053;28;20500;-75
2023/12/02 04:37:31;;;;;;;23.38;10.73;;;-1.60;99.90;;;;;;5022704;28;20172;-75
2023/12/02 04:39:57;;;;;;;22.75;11.73;;;-1.50;99.90;;;;;;5017930;28;20034;-75
2023/12/02 04:42:23;;;;;;;24.73;11.07;;;-1.50;99.90;;;;;;5021212;28;20120;-74
2023/12/02 04:44:49;;;;;;;19.60;10.35;;;-1.50;99.90;;;;;;5022569;28;20171;-75
2023/12/02 04:47:15;;;;;;;22.40;11.02;;;-1.60;99.90;;;;;;5019481;28;20112;-75
2023/12/02 04:49:41;;;;;;;22.27;10.85;;;-1.60;99.90;;;;;;5024974;28;20026;-74
2023/12/02 04:52:07;;;;;;;20.92;10.65;;;-1.60;99.90;;;;;;5027021;28;20056;-75
2023/12/02 04:54:35;;;;;;;22.67;10.75;;;-1.60;99.90;;;;;;5024485;28;20071;-75
2023/12/02 04:57:01;;;;;;;21.98;10.75;;;-1.70;99.90;;;;;;5027378;28;20383;-74
2023/12/02 04:59:27;;;;;;;22.00;10.80;;;-1.70;99.90;;;;;;5023556;28;20026;-75
2023/12/02 05:01:52;;;;;;;21.23;10.77;;;-1.70;99.90;;;;;;5024026;28;20654;-75
2023/12/02 05:04:19;;;;;;;21.05;10.27;;;-1.70;99.90;;;;;;5023780;28;20040;-75
2023/12/02 05:06:46;;;;;;;20.73;10.05;;;-1.70;99.90;;;;;;5024455;28;20033;-75
2023/12/02 05:09:12;;;;;;;21.35;10.07;;;-1.70;99.90;;;;;;5029797;28;20033;-75
2023/12/02 05:11:38;;;;;;;19.70;10.30;;;-1.70;99.90;;;;;;5030534;28;20037;-75
2023/12/02 05:14:03;;;;;;;25.00;11.20;;;-1.70;99.90;;;;;;5030538;28;20032;-75
2023/12/02 05:16:29;;;;;;;23.77;11.07;;;-1.60;99.90;;;;;;5028058;28;20026;-75
2023/12/02 05:18:55;;;;;;;22.08;10.90;;;-1.60;99.90;;;;;;5028688;28;20022;-75
2023/12/02 05:21:21;;;;;;;20.92;10.43;;;-1.70;99.90;;;;;;5023415;28;20029;-73
2023/12/02 05:23:46;;;;;;;23.95;10.40;;;-1.60;99.90;;;;;;5022502;28;20116;-74
2023/12/02 05:26:12;;;;;;;20.52;10.18;;;-1.70;99.90;;;;;;5022576;28;20029;-75
2023/12/02 05:28:38;;;;;;;25.15;10.85;;;-1.60;99.90;;;;;;5028244;28;20060;-75
2023/12/02 05:31:05;;;;;;;21.25;10.48;;;-1.70;99.90;;;;;;5029211;28;20621;-75
2023/12/02 05:33:31;;;;;;;21.38;10.63;;;-1.70;99.90;;;;;;5028703;28;20043;-75
2023/12/02 05:35:57;;;;;;;25.35;11.02;;;-1.70;99.90;;;;;;5027060;28;20037;-74
2023/12/02 05:38:23;;;;;;;19.60;9.15;;;-1.80;99.90;;;;;;5021633;28;20042;-74
2023/12/02 05:40:48;;;;;;;22.02;10.65;;;-1.70;99.90;;;;;;5025249;28;20030;-75
2023/12/02 05:43:14;;;;;;;22.15;10.15;;;-1.70;99.90;;;;;;5024473;28;20038;-75
2023/12/02 05:45:40;;;;;;;21.15;9.93;;;-1.70;99.90;;;;;;5023105;28;20050;-75
2023/12/02 05:48:06;;;;;;;22.42;10.75;;;-1.70;99.90;;;;;;5029984;28;20109;-75
2023/12/02 05:50:32;;;;;;;20.45;9.75;;;-1.60;99.90;;;;;;5029065;28;20079;-75
2023/12/02 05:52:58;;;;;;;22.63;10.80;;;-1.60;99.90;;;;;;5029421;28;20029;-74
2023/12/02 05:55:25;;;;;;;22.20;10.15;;;-1.60;99.90;;;;;;5026735;28;20128;-74
2023/12/02 05:57:52;;;;;;;21.52;9.55;;;-1.70;99.90;;;;;;5024724;28;20030;-75
2023/12/02 06:00:19;;;;;;;23.23;10.65;;;-1.70;99.90;;;;;;5023388;28;20124;-75
2023/12/02 06:02:44;;;;;;;21.35;10.18;;;-1.70;99.90;;;;;;5024245;28;20048;-74
2023/12/02 06:05:10;;;;;;;21.25;10.25;;;-1.70;99.90;;;;;;5023981;28;20033;-75
2023/12/02 06:07:36;;;;;;;24.02;11.02;;;-1.70;99.90;;;;;;5028889;28;20041;-74
2023/12/02 06:10:02;;;;;;;19.15;8.63;;;-1.70;99.90;;;;;;5028184;28;20053;-75
2023/12/02 06:12:28;;;;;;;19.75;10.05;;;-1.70;99.90;;;;;;5027396;28;20042;-74
2023/12/02 06:14:54;;;;;;;22.92;10.73;;;-1.70;99.90;;;;;;5028145;28;20052;-74
2023/12/02 06:17:20;;;;;;;20.67;10.23;;;-1.70;99.90;;;;;;5025415;28;20038;-74
2023/12/02 06:19:46;;;;;;;20.58;9.63;;;-1.70;99.90;;;;;;5023788;28;20095;-74
2023/12/02 06:22:13;;;;;;;23.10;10.52;;;-1.70;99.90;;;;;;5027398;28;20029;-75
2023/12/02 06:24:39;;;;;;;22.08;10.25;;;-1.70;99.90;;;;;;5021597;28;20044;-74
2023/12/02 06:27:05;;;;;;;22.83;9.73;;;-1.70;99.90;;;;;;5025402;28;20025;-75
2023/12/02 06:29:31;;;;;;;24.33;9.80;;;-1.70;99.90;;;;;;4987306;28;20037;-75
2023/12/02 06:31:57;;;;;;;17.88;9.20;;;-1.80;99.90;;;;;;5023926;28;20128;-75
2023/12/02 06:34:23;;;;;;;18.90;9.00;;;-1.80;99.90;;;;;;5022972;28;20116;-74
2023/12/02 06:36:48;;;;;;;19.30;9.70;;;-1.80;99.90;;;;;;5022678;28;20458;-75
2023/12/02 06:39:15;;;;;;;20.15;9.20;;;-1.80;99.90;;;;;;5024487;28;20068;-74
2023/12/02 06:41:41;;;;;;;21.92;9.35;;;-1.80;99.90;;;;;;5022313;28;20124;-74
2023/12/02 06:44:10;;;;;;;18.63;9.93;;;-1.90;99.90;;;;;;5023241;28;20116;-74
2023/12/02 06:46:36;;;;;;;18.52;9.07;;;-1.90;99.90;;;;;;5031219;28;20037;-75
2023/12/02 06:49:02;;;;;;;20.13;9.32;;;-1.80;99.90;;;;;;5026962;28;20673;-75
2023/12/02 06:51:30;;;;;;;18.20;9.30;;;-1.80;99.90;;;;;;5028434;28;20041;-76
2023/12/02 06:53:59;;;;;;;20.92;10.20;;;-1.80;99.90;;;;;;5021369;28;20034;-75
2023/12/02 06:56:26;;;;;;;19.75;9.20;;;-1.90;99.90;;;;;;5024599;28;20483;-76
2023/12/02 06:58:52;;;;;;;20.67;10.20;;;-1.90;99.90;;;;;;5025720;28;20555;-75
2023/12/02 07:01:32;;;;;;;19.65;9.52;;;-1.90;99.90;;;;;;5021373;28;20053;-73
2023/12/02 07:04:00;;;;;;;20.45;9.02;;;-1.90;99.90;;;;;;5018626;28;20149;-75
2023/12/02 07:06:27;;;;;;;17.08;9.02;;;-1.90;99.90;;;;;;5022759;28;20036;-75
2023/12/02 07:08:54;;;;;;;20.02;10.02;;;-1.90;99.90;;;;;;5023544;28;20084;-74
2023/12/02 07:11:21;;;;;;;22.02;10.32;;;-1.90;99.90;;;;;;5022001;28;20029;-74
2023/12/02 07:13:46;;;;;;;18.88;8.93;;;-1.90;99.90;;;;;;5021682;28;20037;-75
2023/12/02 07:16:12;;;;;;;22.63;10.25;;;-1.90;99.90;;;;;;5021878;28;20060;-75
2023/12/02 07:18:39;;;;;;;20.38;8.77;;;-1.90;99.90;;;;;;5018467;28;20108;-74
2023/12/02 07:21:05;;;;;;;20.48;9.43;;;-1.90;99.90;;;;;;5014875;28;20675;-74
2023/12/02 07:23:31;;;;;;;21.92;9.75;;;-1.90;99.90;;;;;;5009654;28;20072;-75
2023/12/02 07:25:57;;;;;;;18.80;9.63;;;-2.00;99.90;;;;;;5016820;28;20041;-75
2023/12/02 07:28:23;;;;;;;23.27;10.68;;;-2.00;99.90;;;;;;5018302;28;20033;-74
2023/12/02 07:30:49;;;;;;;22.42;9.52;;;-2.00;99.90;;;;;;5016321;28;20030;-74
2023/12/02 07:33:16;;;;;;;20.73;9.15;;;-2.10;99.90;;;;;;5018143;28;20033;-75
2023/12/02 07:35:42;;;;;;;20.20;9.90;;;-2.00;99.90;;;;;;5017751;28;20033;-74
2023/12/02 07:38:08;;;;;;;21.75;10.70;;;-2.00;99.90;;;;;;5019119;28;20153;-75
2023/12/02 07:40:35;;;;;;;22.00;10.07;;;-2.00;99.90;;;;;;5020831;28;20036;-74
2023/12/02 07:43:04;;;;;;;19.15;9.35;;;-2.00;99.90;;;;;;5018843;28;20041;-75
2023/12/02 07:45:29;;;;;;;21.33;10.55;;;-2.00;99.90;;;;;;5020288;28;20038;-75
2023/12/02 07:47:55;;;;;;;22.00;10.38;;;-2.00;99.90;;;;;;5017958;28;20108;-75
2023/12/02 07:50:22;;;;;;;23.15;9.65;;;-2.00;99.90;;;;;;5022691;28;20064;-75
2023/12/02 07:52:47;;;;;;;20.20;9.23;;;-2.00;99.90;;;;;;5025678;28;20560;-75
2023/12/02 07:55:14;;;;;;;17.60;9.77;;;-2.00;99.90;;;;;;5024748;28;20125;-75
2023/12/02 07:57:39;;;;;;;18.08;9.10;;;-2.00;99.90;;;;;;5022437;28;20097;-75
2023/12/02 08:00:07;;;;;;;22.00;9.90;;;-2.00;99.90;;;;;;5021900;28;20060;-75
2023/12/02 08:02:39;;;;;;;19.67;8.98;;;-2.00;99.90;;;;;;5029098;28;20472;-75
2023/12/02 08:05:05;;;;;;;20.23;9.05;;;-2.00;99.90;;;;;;5033052;28;20068;-75
2023/12/02 08:07:31;;;;;;;18.38;9.00;;;-2.00;99.90;;;;;;5030681;28;20029;-75
2023/12/02 08:09:57;;;;;;;19.63;9.30;;;-1.90;99.90;;;;;;5028115;28;20109;-75
2023/12/02 08:12:22;;;;;;;18.08;8.50;;;-2.00;99.90;;;;;;5023685;28;20037;-74
2023/12/02 08:14:48;;;;;;;16.73;8.70;;;-2.00;99.90;;;;;;5022545;28;20022;-75
2023/12/02 08:17:14;;;;;;;15.65;8.60;;;-1.90;99.90;;;;;;5022475;28;20056;-74
2023/12/02 08:19:39;;;;;;;16.27;7.63;;;-1.90;99.90;;;;;;5019443;28;20037;-75
2023/12/02 08:22:05;;;;;;;14.90;8.05;;;-1.90;99.90;;;;;;5023025;28;20048;-75
2023/12/02 08:24:32;;;;;;;17.05;8.82;;;-2.00;99.90;;;;;;5022614;28;20104;-75
2023/12/02 08:26:59;;;;;;;16.73;8.82;;;-2.00;99.90;;;;;;5025603;28;20458;-74
2023/12/02 08:29:24;;;;;;;15.02;7.88;;;-2.00;99.90;;;;;;5022462;28;20061;-74
2023/12/02 08:31:51;;;;;;;14.50;7.60;;;-2.00;99.90;;;;;;5021269;28;20068;-74
2023/12/02 08:34:16;;;;;;;12.85;7.30;;;-1.90;99.90;;;;;;5023325;28;20716;-75
2023/12/02 08:36:43;;;;;;;13.43;7.53;;;-2.00;99.90;;;;;;5020442;28;20034;-74
2023/12/02 08:39:09;;;;;;;13.70;7.53;;;-2.00;99.90;;;;;;5019191;28;20071;-74
2023/12/02 08:41:36;;;;;;;10.38;6.65;;;-2.00;99.90;;;;;;5023075;28;20124;-74
2023/12/02 08:44:02;;;;;;;12.73;6.55;;;-2.00;99.90;;;;;;5020506;28;20037;-73
2023/12/02 08:46:28;;;;;;;12.68;7.40;;;-1.90;99.90;;;;;;5023691;28;20510;-73
2023/12/02 08:48:54;;;;;;;12.48;7.38;;;-2.00;99.90;;;;;;5025054;28;20033;-73
2023/12/02 08:51:21;;;;;;;11.85;6.70;;;-2.00;99.90;;;;;;5026956;28;20101;-73
2023/12/02 08:53:58;;;;;;;10.27;6.45;;;-2.00;99.90;;;;;;5007827;28;20109;-73
2023/12/02 08:56:24;;;;;;;13.38;6.63;;;-2.00;99.90;;;;;;5019716;28;20033;-73
2023/12/02 08:58:51;;;;;;;13.70;7.35;;;-2.00;99.90;;;;;;5017577;28;20499;-73
2023/12/02 09:01:16;;;;;;;11.43;6.78;;;-2.00;99.90;;;;;;5024839;28;20732;-73
2023/12/02 09:03:42;;;;;;;13.23;7.10;;;-2.00;99.90;;;;;;5026746;28;20021;-73
2023/12/02 09:06:09;;;;;;;13.50;6.25;;;-2.00;99.90;;;;;;5026201;28;20387;-72
2023/12/02 09:08:35;;;;;;;11.98;6.57;;;-2.00;99.90;;;;;;5026791;28;20029;-73
2023/12/02 09:11:00;;;;;;;12.93;7.05;;;-2.10;99.90;;;;;;5020562;28;20032;-73
2023/12/02 09:13:47;;;;;;;13.93;7.18;;;-2.00;99.90;;;;;;5019503;28;20037;-73
2023/12/02 09:16:28;;;;;;;9.82;5.80;;;-2.00;99.90;;;;;;5013169;28;20030;-73
2023/12/02 09:18:54;;;;;;;11.30;6.32;;;-2.00;99.90;;;;;;5021941;28;20616;-73
2023/12/02 09:21:44;;;;;;;11.73;6.88;;;-2.00;99.90;;;;;;5020773;28;20026;-73
2023/12/02 09:24:33;;;;;;;12.23;7.15;;;-2.00;99.90;;;;;;5028320;28;20442;-73
2023/12/02 09:26:58;;;;;;;10.93;6.30;;;-1.90;99.90;;;;;;5026553;28;20044;-74
2023/12/02 09:29:31;;;;;;;10.35;5.70;;;-1.90;99.90;;;;;;5025562;28;20033;-73
2023/12/02 09:31:56;;;;;;;10.38;5.90;;;-2.00;99.90;;;;;;5031140;28;20384;-73
2023/12/02 09:34:40;;;;;;;10.93;6.03;;;-2.00;99.90;;;;;;5026626;28;20052;-73
2023/12/02 09:37:32;;;;;;;10.07;5.65;;;-2.00;99.90;;;;;;5027072;28;20021;-72
2023/12/02 09:40:16;;;;;;;13.20;6.53;;;-2.00;99.90;;;;;;5032519;28;20675;-73
2023/12/02 09:42:46;;;;;;;10.10;5.75;;;-2.00;99.90;;;;;;5030251;28;20021;-73
2023/12/02 09:45:13;;;;;;;11.07;5.80;;;-2.00;99.90;;;;;;5030752;28;20052;-73
2023/12/02 09:47:46;;;;;;;10.55;5.93;;;-2.00;99.90;;;;;;5051672;28;20029;-73
2023/12/02 09:50:30;;;;;;;10.75;6.22;;;-2.00;99.90;;;;;;5034878;28;20045;-73
2023/12/02 09:53:46;;;;;;;10.75;5.95;;;-1.90;99.90;;;;;;5031220;28;20022;-72
2023/12/02 09:56:20;;;;;;;10.02;5.70;;;-1.90;99.90;;;;;;5003568;28;20048;-74
2023/12/02 09:58:54;;;;;;;10.73;6.07;;;-1.90;99.90;;;;;;5052715;28;20033;-73
2023/12/02 10:01:36;;;;;;;10.38;5.88;;;-1.90;99.90;;;;;;5030333;28;20030;-73
2023/12/02 10:04:19;;;;;;;11.52;5.97;;;-1.90;99.90;;;;;;5025746;28;20041;-74
2023/12/02 10:07:17;;;;;;;10.88;6.47;;;-1.90;99.90;;;;;;5030149;28;20026;-73
2023/12/02 10:10:10;;;;;;;11.48;6.97;;;-1.90;99.90;;;;;;5024419;28;20064;-74
2023/12/02 10:13:07;;;;;;;13.98;6.90;;;-1.90;99.90;;;;;;5025440;28;20387;-73
2023/12/02 10:15:34;;;;;;;11.57;6.57;;;-1.90;99.90;;;;;;5026983;28;20467;-74
2023/12/02 10:18:12;;;;;;;11.02;6.40;;;-1.80;99.90;;;;;;5026541;28;20069;-73
2023/12/02 10:20:41;;;;;;;14.45;7.13;;;-1.90;99.90;;;;;;5021799;28;20053;-72
2023/12/02 10:23:55;;;;;;;12.80;6.32;;;-1.90;99.90;;;;;;5026759;28;20034;-74
2023/12/02 10:26:40;;;;;;;11.65;6.63;;;-1.80;99.90;;;;;;4990196;28;20038;-73
2023/12/02 10:29:15;;;;;;;10.38;6.30;;;-1.80;99.90;;;;;;5024898;28;20048;-73
2023/12/02 10:31:47;;;;;;;;;;;-1.80;99.90;;;;;;5021053;28;20033;-74
2023/12/02 10:34:23;;;;;;;11.65;6.65;;;-1.70;99.90;;;;;;5026185;28;19916;-73
2023/12/02 10:36:53;;;;;;;13.07;6.47;;;-1.70;99.90;;;;;;5045658;28;20037;-72
2023/12/02 10:39:32;;;;;;;14.15;7.57;;;-1.70;99.90;;;;;;5019801;28;20144;-72
2023/12/02 10:42:02;;;;;;;12.90;6.28;;;-1.70;99.90;;;;;;5025346;28;20104;-72
2023/12/02 10:44:31;;;;;;;10.80;6.10;;;-1.70;99.90;;;;;;5032779;28;20068;-73
2023/12/02 10:47:05;;;;;;;10.50;6.07;;;-1.70;99.90;;;;;;5027091;28;20022;-73
2023/12/02 10:49:33;;;;;;;10.07;6.53;;;-1.70;99.90;;;;;;5025435;28;20517;-73
2023/12/02 10:52:02;;;;;;;9.88;5.88;;;-1.70;99.90;;;;;;5028636;28;20026;-73
2023/12/02 10:54:32;;;;;;;10.73;6.28;;;-1.70;99.90;;;;;;5024527;28;20116;-72
2023/12/02 10:57:08;;;;;;;9.85;5.75;;;-1.70;99.90;;;;;;5027314;28;20033;-73
2023/12/02 11:00:12;;;;;;;8.35;5.13;;;-1.60;99.90;;;;;;5025060;28;20036;-73
2023/12/02 11:02:53;;;;;;;10.95;6.00;;;-1.60;99.90;;;;;;5024391;28;20041;-73
2023/12/02 11:05:21;;;;;;;10.98;5.72;;;-1.60;99.90;;;;;;5027269;28;20036;-73
2023/12/02 11:07:54;;;;;;;10.13;5.43;;;-1.60;99.90;;;;;;5021136;28;20699;-74
2023/12/02 11:10:39;;;;;;;12.07;5.68;;;-1.60;99.90;;;;;;5044411;28;20034;-73
2023/12/02 11:13:19;;;;;;;8.07;5.00;;;-1.60;99.90;;;;;;5019236;28;20053;-73
2023/12/02 11:15:57;;;;;;;13.65;7.50;;;-1.60;99.90;;;;;;5025574;28;20415;-74
2023/12/02 11:18:47;;;;;;;11.00;5.80;;;-1.50;99.90;;;;;;5021647;28;20046;-73
2023/12/02 11:21:27;;;;;;;9.88;5.40;;;-1.50;99.90;;;;;;5023002;28;20036;-73
2023/12/02 11:24:14;;;;;;;10.10;5.80;;;-1.50;99.90;;;;;;5025456;28;20044;-75
2023/12/02 11:27:06;;;;;;;10.85;5.97;;;-1.50;99.90;;;;;;5026252;28;20056;-75
2023/12/02 11:29:40;;;;;;;9.80;5.40;;;-1.60;99.90;;;;;;5023703;28;20045;-73
2023/12/02 11:32:39;;;;;;;10.45;6.05;;;-1.60;99.90;;;;;;5026180;28;20033;-72
2023/12/02 11:35:13;;;;;;;10.90;5.68;;;-1.60;99.90;;;;;;5025981;28;20033;-72
2023/12/02 11:37:54;;;;;;;11.27;5.38;;;-1.60;99.90;;;;;;5024034;28;20619;-73
2023/12/02 11:40:27;;;;;;;8.65;5.55;;;-1.60;99.90;;;;;;5021121;28;20030;-73
2023/12/02 11:43:14;;;;;;;10.15;5.60;;;-1.60;99.90;;;;;;5029337;28;20029;-73
2023/12/02 11:45:51;;;;;;;9.60;5.18;;;-1.60;99.90;;;;;;5025444;28;20116;-73
2023/12/02 11:48:29;;;;;;;9.73;5.70;;;-1.60;99.90;;;;;;5024976;28;20017;-73
2023/12/02 11:51:36;;;;;;;9.85;6.28;;;-1.60;99.90;;;;;;5026243;28;20021;-73
2023/12/02 11:54:09;;;;;;;18.13;6.65;;;-1.60;99.90;;;;;;4968464;28;20034;-72
2023/12/02 11:56:35;;;;;;;9.90;6.30;;;-1.50;99.90;;;;;;5021391;28;20519;-73
2023/12/02 11:59:10;;;;;;;10.15;5.75;;;-1.50;99.90;;;;;;5025449;28;20529;-74
2023/12/02 12:01:49;;;;;;;11.90;6.55;;;-1.60;99.90;;;;;;5024101;28;20048;-73
2023/12/02 12:04:33;;;;;;;12.27;6.47;;;-1.50;99.90;;;;;;5024015;28;20028;-74
2023/12/02 12:07:18;;;;;;;11.77;6.70;;;-1.50;99.90;;;;;;5028623;28;20567;-74
2023/12/02 12:10:00;;;;;;;9.45;5.82;;;-1.50;99.90;;;;;;5027212;28;20036;-74
2023/12/02 12:12:28;;;;;;;10.18;5.93;;;-1.50;99.90;;;;;;5029165;28;20407;-74
2023/12/02 12:14:55;;;;;;;9.63;5.78;;;-1.50;99.90;;;;;;5032572;28;20620;-73
2023/12/02 12:17:21;;;;;;;12.52;6.63;;;-1.50;99.90;;;;;;5034365;28;20041;-73
2023/12/02 12:19:50;;;;;;;11.48;6.85;;;-1.50;99.90;;;;;;5030459;28;20069;-73
2023/12/02 12:22:16;;;;;;;9.70;6.00;;;-1.50;99.90;;;;;;5035083;28;20526;-73
2023/12/02 12:24:42;;;;;;;16.98;6.97;;;-1.50;99.90;;;;;;5028833;28;20036;-73
2023/12/02 12:27:10;;;;;;;9.75;5.60;;;-1.50;99.90;;;;;;5034778;28;20391;-74
2023/12/02 12:29:53;;;;;;;10.15;6.03;;;-1.40;99.90;;;;;;5029418;28;20407;-73
2023/12/02 12:32:19;;;;;;;8.68;5.93;;;-1.50;99.90;;;;;;5029378;28;20177;-73
2023/12/02 12:34:45;;;;;;;11.85;6.22;;;-1.50;99.90;;;;;;5023469;28;20065;-73
2023/12/02 12:37:18;;;;;;;8.85;5.53;;;-1.40;99.90;;;;;;5035417;28;20527;-73
2023/12/02 12:39:45;;;;;;;11.00;6.20;;;-1.40;99.90;;;;;;5032996;28;20627;-74
2023/12/02 12:42:12;;;;;;;9.82;5.50;;;-1.40;99.90;;;;;;5031371;28;20064;-74
2023/12/02 12:44:40;;;;;;;10.02;6.28;;;-1.50;99.90;;;;;;5031478;28;20029;-73